Time;durP1;ratioP1;P1;durP2;ratioP2;P2;SDS_P1;SDS_P2;PMS_P1;PMS_P2;Temp;Humidity;BMP_temperature;BMP_pressure;BME280_temperature;BME280_humidity;BME280_pressure;Samples;Min_cycle;Max_cycle;Signal;HPM_P1;HPM_P2
2021/08/23 00:00:27;;;;;;;;;;;;;;;14.31;85.64;97314.88;30001;983;1875;-64
2021/08/23 00:00:58;;;;;;;;;;;;;;;14.31;85.70;97320.34;30001;983;1880;-71
2021/08/23 00:01:29;;;;;;;;;;;;;;;14.31;85.33;97320.34;30001;983;1875;-71
2021/08/23 00:02:00;;;;;;;;;;;;;;;14.31;85.37;97317.63;30001;983;1880;-64
2021/08/23 00:02:31;;;;;;;;;;;;;;;14.32;85.15;97313.78;30001;982;1875;-72
2021/08/23 00:03:02;;;;;;;;;;;;;;;14.31;84.76;97312.16;30001;982;1867;-71
2021/08/23 00:03:33;;;;;;;;;;;;;;;14.30;84.99;97310.53;30001;982;1854;-75
2021/08/23 00:04:04;;;;;;;;;;;;;;;14.28;84.80;97318.22;30001;982;1880;-64
2021/08/23 00:04:35;;;;;;;;;;;;;;;14.25;85.05;97314.19;30001;982;1876;-61
2021/08/23 00:05:07;;;;;;;;;;;;;;;14.22;85.21;97314.78;30001;983;1879;-64
2021/08/23 00:05:39;;;;;;;;;;;;;;;14.19;85.21;97314.62;30001;983;1875;-64
2021/08/23 00:06:10;;;;;;;;;;;;;;;14.17;85.57;97319.56;30001;983;1879;-71
2021/08/23 00:06:44;;;;;;;;;;;;;;;14.14;85.46;97317.47;30001;983;1875;-63
2021/08/23 00:07:15;;;;;;;;;;;;;;;14.12;85.90;97312.31;30001;983;1879;-71
2021/08/23 00:07:46;;;;;;;;;;;;;;;14.12;85.92;97319.69;30001;983;1875;-61
2021/08/23 00:08:17;;;;;;;;;;;;;;;14.09;86.21;97321.91;30001;983;1866;-70
2021/08/23 00:08:48;;;;;;;;;;;;;;;14.07;86.60;97321.41;30001;983;1866;-72
2021/08/23 00:09:20;;;;;;;;;;;;;;;14.05;86.96;97314.62;30001;983;1880;-72
2021/08/23 00:09:51;;;;;;;;;;;;;;;14.03;87.09;97320.38;30001;983;1875;-74
2021/08/23 00:10:21;;;;;;;;;;;;;;;14.00;87.53;97317.47;30001;982;1880;-59
2021/08/23 00:10:56;;;;;;;;;;;;;;;13.98;87.89;97315.03;30001;982;1875;-72
2021/08/23 00:11:26;;;;;;;;;;;;;;;13.96;87.79;97311.78;30001;982;1880;-75
2021/08/23 00:11:58;;;;;;;;;;;;;;;13.95;87.61;97307.44;30001;965;1901;-73
2021/08/23 00:12:30;;;;;;;;;;;;;;;13.95;87.57;97312.91;30001;982;1880;-71
2021/08/23 00:13:01;;;;;;;;;;;;;;;13.95;87.66;97315.63;30001;983;1862;-73
2021/08/23 00:13:32;;;;;;;;;;;;;;;13.94;87.45;97311.28;30001;983;1870;-74
2021/08/23 00:14:03;;;;;;;;;;;;;;;13.95;87.15;97314.81;30001;983;1875;-72
2021/08/23 00:14:34;;;;;;;;;;;;;;;13.96;87.07;97306.34;30001;983;1879;-70
2021/08/23 00:15:07;;;;;;;;;;;;;;;13.95;86.93;97304.72;30001;983;1875;-73
2021/08/23 00:15:39;;;;;;;;;;;;;;;13.95;87.28;97309.38;30001;983;1879;-72
2021/08/23 00:16:10;;;;;;;;;;;;;;;13.95;87.17;97304.72;30001;983;1875;-69
2021/08/23 00:16:42;;;;;;;;;;;;;;;13.94;87.08;97314.03;30001;983;1880;-73
2021/08/23 00:17:13;;;;;;;;;;;;;;;13.93;86.95;97311.59;30001;983;1875;-74
2021/08/23 00:17:44;;;;;;;;;;;;;;;13.92;87.23;97309.97;30001;982;1880;-71
2021/08/23 00:18:15;;;;;;;;;;;;;;;13.92;86.76;97310.78;30001;982;1862;-72
2021/08/23 00:18:47;;;;;;;;;;;;;;;13.93;86.89;97308.88;30001;982;1871;-72
2021/08/23 00:19:18;;;;;;;;;;;;;;;13.93;86.89;97309.69;30001;982;1876;-72
2021/08/23 00:19:49;;;;;;;;;;;;;;;13.94;86.78;97313.22;30001;982;1880;-71
2021/08/23 00:20:25;;;;;;;;;;;;;;;13.92;86.80;97318.97;30001;983;1875;-71
2021/08/23 00:21:01;;;;;;;;;;;;;;;13.93;86.88;97311.59;30001;983;1879;-71
2021/08/23 00:21:41;;;;;;;;;;;;;;;13.93;86.83;97312.41;30001;983;1875;-74
2021/08/23 00:23:13;;;;;;;;;;;;;;;13.94;86.77;97308.56;30001;983;1875;-72
2021/08/23 00:23:50;;;;;;;;;;;;;;;13.95;87.26;97310.19;30001;983;1866;-71
2021/08/23 00:24:24;;;;;;;;;;;;;;;13.94;86.70;97307.75;30001;983;1867;-71
2021/08/23 00:24:55;;;;;;;;;;;;;;;13.95;87.13;97310.19;30001;983;1879;-74
2021/08/23 00:25:25;;;;;;;;;;;;;;;13.96;86.66;97316.44;30001;982;1875;-71
2021/08/23 00:25:56;;;;;;;;;;;;;;;13.95;86.68;97315.63;30001;982;1880;-73
2021/08/23 00:26:27;;;;;;;;;;;;;;;13.95;86.29;97306.66;30002;982;1876;-71
2021/08/23 00:26:59;;;;;;;;;;;;;;;13.95;86.36;97309.38;30002;982;1867;-71
2021/08/23 00:27:30;;;;;;;;;;;;;;;13.93;86.61;97309.69;30002;982;1867;-71
2021/08/23 00:28:01;;;;;;;;;;;;;;;13.94;86.75;97305.03;30002;983;1879;-71
2021/08/23 00:28:32;;;;;;;;;;;;;;;13.93;86.55;97306.12;30002;983;1875;-73
2021/08/23 00:29:03;;;;;;;;;;;;;;;13.92;86.90;97305.31;30002;983;1879;-72
2021/08/23 00:29:34;;;;;;;;;;;;;;;13.91;86.52;97314.62;30002;983;1875;-71
2021/08/23 00:30:07;;;;;;;;;;;;;;;13.92;86.74;97310.78;30002;983;1879;-73
2021/08/23 00:30:38;;;;;;;;;;;;;;;13.92;86.62;97305.31;30002;983;1875;-72
2021/08/23 00:31:09;;;;;;;;;;;;;;;13.92;86.66;97316.25;30002;983;1866;-72
2021/08/23 00:31:40;;;;;;;;;;;;;;;13.91;87.53;97303.72;30002;983;1853;-73
2021/08/23 00:32:11;;;;;;;;;;;;;;;13.90;87.97;97306.75;30002;983;1880;-73
2021/08/23 00:32:43;;;;;;;;;;;;;;;13.89;88.20;97313.31;30002;982;1875;-72
2021/08/23 00:33:14;;;;;;;;;;;;;;;13.88;88.34;97303.50;30002;982;1880;-72
2021/08/23 00:33:45;;;;;;;;;;;;;;;13.86;88.33;97306.53;30002;982;1876;-71
2021/08/23 00:34:17;;;;;;;;;;;;;;;13.86;88.41;97305.75;30002;982;1792;-71
2021/08/23 00:34:48;;;;;;;;;;;;;;;13.86;88.20;97311.22;30002;982;1876;-72
2021/08/23 00:35:19;;;;;;;;;;;;;;;13.85;88.35;97304.94;30002;983;1879;-71
2021/08/23 00:35:50;;;;;;;;;;;;;;;13.84;87.83;97308.78;30002;983;1875;-72
2021/08/23 00:36:21;;;;;;;;;;;;;;;13.84;88.15;97300.59;30002;983;1879;-72
2021/08/23 00:36:52;;;;;;;;;;;;;;;13.84;88.13;97303.34;30002;983;1862;-72
2021/08/23 00:37:22;;;;;;;;;;;;;;;13.85;87.66;97313.13;30002;983;1857;-72
2021/08/23 00:37:55;;;;;;;;;;;;;;;13.85;87.68;97306.88;30002;983;1875;-71
2021/08/23 00:38:26;;;;;;;;;;;;;;;13.85;87.62;97304.94;30002;983;1879;-71
2021/08/23 00:38:57;;;;;;;;;;;;;;;13.86;87.39;97309.28;30002;983;1875;-73
2021/08/23 00:39:28;;;;;;;;;;;;;;;13.86;87.42;97303.81;30002;982;1880;-72
2021/08/23 00:39:58;;;;;;;;;;;;;;;13.87;87.38;97297.25;30002;982;1875;-59
2021/08/23 00:40:30;;;;;;;;;;;;;;;13.87;87.58;97304.63;30002;982;1880;-72
2021/08/23 00:41:00;;;;;;;;;;;;;;;13.85;87.39;97304.94;30002;982;1875;-72
2021/08/23 00:41:33;;;;;;;;;;;;;;;13.84;87.36;97308.78;30002;982;1880;-71
2021/08/23 00:42:05;;;;;;;;;;;;;;;13.87;87.26;97297.25;30002;982;1863;-73
2021/08/23 00:42:35;;;;;;;;;;;;;;;13.88;87.30;97298.88;30002;982;1871;-72
2021/08/23 00:43:06;;;;;;;;;;;;;;;13.90;86.84;97302.09;30002;983;1875;-71
2021/08/23 00:43:37;;;;;;;;;;;;;;;13.90;86.63;97302.09;30002;983;1879;-59
2021/08/23 00:44:08;;;;;;;;;;;;;;;13.88;87.13;97301.59;30002;983;1875;-72
2021/08/23 00:44:40;;;;;;;;;;;;;;;13.88;87.15;97304.31;30002;983;1866;-71
2021/08/23 00:45:11;;;;;;;;;;;;;;;13.86;87.06;97303.81;30002;983;1866;-72
2021/08/23 00:45:42;;;;;;;;;;;;;;;13.86;87.34;97301.09;30002;983;1880;-73
2021/08/23 00:46:13;;;;;;;;;;;;;;;13.87;87.10;97299.97;30002;983;1875;-70
2021/08/23 00:46:44;;;;;;;;;;;;;;;13.89;86.99;97305.94;30002;983;1880;-71
2021/08/23 00:47:15;;;;;;;;;;;;;;;13.90;86.62;97307.56;30002;982;1875;-73
2021/08/23 00:47:46;;;;;;;;;;;;;;;13.90;86.93;97301.28;30002;982;1880;-71
2021/08/23 00:48:16;;;;;;;;;;;;;;;13.90;86.56;97304.00;30002;982;1862;-71
2021/08/23 00:48:47;;;;;;;;;;;;;;;13.89;86.79;97300.47;30002;982;1871;-71
2021/08/23 00:49:18;;;;;;;;;;;;;;;13.89;86.56;97305.94;30002;982;1876;-71
2021/08/23 00:49:49;;;;;;;;;;;;;;;13.90;86.75;97310.28;30002;983;1879;-73
2021/08/23 00:50:21;;;;;;;;;;;;;;;13.89;87.00;97302.41;30002;983;1875;-71
2021/08/23 00:50:51;;;;;;;;;;;;;;;13.89;87.35;97303.22;30002;983;1879;-72
2021/08/23 00:51:22;;;;;;;;;;;;;;;13.89;86.90;97305.94;30002;983;1875;-72
2021/08/23 00:51:55;;;;;;;;;;;;;;;13.88;87.07;97309.78;30002;983;1879;-75
2021/08/23 00:52:26;;;;;;;;;;;;;;;13.92;86.51;97316.25;30002;983;1875;-71
2021/08/23 00:52:58;;;;;;;;;;;;;;;13.92;86.12;97305.31;30002;983;1866;-62
2021/08/23 00:53:29;;;;;;;;;;;;;;;13.93;86.27;97306.94;30002;983;1866;-71
2021/08/23 00:54:00;;;;;;;;;;;;;;;13.92;86.49;97299.88;30002;983;1880;-72
2021/08/23 00:54:33;;;;;;;;;;;;;;;13.94;86.21;97308.56;30002;982;1875;-71
2021/08/23 00:55:05;;;;;;;;;;;;;;;13.94;86.15;97308.56;30002;982;1867;-71
2021/08/23 00:55:36;;;;;;;;;;;;;;;13.93;86.15;97301.50;30002;982;1867;-59
2021/08/23 00:56:07;;;;;;;;;;;;;;;13.92;86.94;97299.06;30002;982;1880;-71
2021/08/23 00:56:38;;;;;;;;;;;;;;;13.90;86.76;97302.09;30002;982;1876;-71
2021/08/23 00:57:10;;;;;;;;;;;;;;;13.89;87.58;97305.94;30002;983;1879;-70
2021/08/23 00:57:42;;;;;;;;;;;;;;;13.87;87.62;97308.16;30002;983;1862;-71
2021/08/23 00:58:12;;;;;;;;;;;;;;;13.85;87.72;97299.50;30002;983;1870;-72
2021/08/23 00:58:43;;;;;;;;;;;;;;;13.83;87.56;97300.91;30002;983;1875;-71
2021/08/23 00:59:14;;;;;;;;;;;;;;;13.83;87.80;97301.72;30002;983;1879;-71
2021/08/23 00:59:46;;;;;;;;;;;;;;;13.81;87.42;97301.22;30002;983;1875;-71
2021/08/23 01:00:17;;;;;;;;;;;;;;;13.81;87.76;97298.50;30002;983;1879;-71
2021/08/23 01:01:07;;;;;;;;;;;;;;;13.81;87.40;97303.94;30002;983;1875;-61
2021/08/23 01:01:45;;;;;;;;;;;;;;;13.82;87.22;97297.38;30002;983;1880;-73
2021/08/23 01:02:38;;;;;;;;;;;;;;;13.84;86.77;97308.78;30002;982;1875;-72
2021/08/23 01:03:19;;;;;;;;;;;;;;;13.83;86.82;97307.19;30002;982;1863;-72
2021/08/23 01:03:57;;;;;;;;;;;;;;;13.85;86.91;97304.94;30002;982;1867;-73
2021/08/23 01:04:38;;;;;;;;;;;;;;;13.85;86.76;97310.41;30002;982;1880;-71
2021/08/23 01:05:18;;;;;;;;;;;;;;;13.86;86.83;97306.53;30002;983;1875;-70
2021/08/23 01:05:49;;;;;;;;;;;;;;;13.84;87.05;97306.06;30002;983;1879;-70
2021/08/23 01:06:21;;;;;;;;;;;;;;;13.84;87.01;97308.78;30002;983;1875;-70
2021/08/23 01:06:53;;;;;;;;;;;;;;;13.84;87.29;97311.53;30002;983;1866;-71
2021/08/23 01:07:26;;;;;;;;;;;;;;;13.83;87.36;97304.44;30002;983;1866;-72
2021/08/23 01:08:07;;;;;;;;;;;;;;;13.82;87.49;97311.00;30002;983;1866;-72
2021/08/23 01:08:40;;;;;;;;;;;;;;;13.80;87.42;97305.06;30002;983;1866;-71
2021/08/23 01:09:12;;;;;;;;;;;;;;;13.81;87.73;97312.13;30002;983;1880;-71
2021/08/23 01:09:46;;;;;;;;;;;;;;;13.81;87.52;97306.66;30002;982;1875;-69
2021/08/23 01:10:23;;;;;;;;;;;;;;;13.83;87.77;97311.81;30002;982;1880;-70
2021/08/23 01:10:55;;;;;;;;;;;;;;;13.81;87.46;97306.66;30002;982;1876;-69
2021/08/23 01:11:27;;;;;;;;;;;;;;;13.86;87.61;97312.00;30002;982;1880;-71
2021/08/23 01:11:58;;;;;;;;;;;;;;;13.86;87.21;97312.00;30002;982;1876;-71
2021/08/23 01:12:30;;;;;;;;;;;;;;;13.87;87.42;97307.34;30002;983;1879;-69
2021/08/23 01:13:00;;;;;;;;;;;;;;;13.87;87.30;97308.16;30002;983;1862;-71
2021/08/23 01:13:32;;;;;;;;;;;;;;;13.87;87.39;97307.34;30002;983;1870;-70
2021/08/23 01:14:03;;;;;;;;;;;;;;;13.87;87.35;97307.34;30002;983;1875;-71
2021/08/23 01:14:35;;;;;;;;;;;;;;;13.85;87.51;97309.59;30002;983;1879;-71
2021/08/23 01:15:06;;;;;;;;;;;;;;;13.83;87.30;97312.63;30002;983;1875;-71
2021/08/23 01:15:37;;;;;;;;;;;;;;;13.83;87.47;97309.91;30002;983;1880;-70
2021/08/23 01:16:08;;;;;;;;;;;;;;;13.82;88.01;97311.00;30002;983;1875;-72
2021/08/23 01:16:39;;;;;;;;;;;;;;;13.81;88.10;97309.41;30002;983;1880;-70
2021/08/23 01:17:10;;;;;;;;;;;;;;;13.79;87.64;97306.16;30002;982;1875;-70
2021/08/23 01:17:41;;;;;;;;;;;;;;;13.79;87.64;97306.16;30002;982;1867;-72
2021/08/23 01:18:12;;;;;;;;;;;;;;;13.79;87.50;97305.34;30002;982;1867;-71
2021/08/23 01:18:43;;;;;;;;;;;;;;;13.78;87.60;97310.00;30001;982;1880;-70
2021/08/23 01:19:19;;;;;;;;;;;;;;;13.78;87.50;97312.72;30001;982;1876;-58
2021/08/23 01:19:56;;;;;;;;;;;;;;;13.80;87.03;97306.97;30001;983;1879;-71
2021/08/23 01:20:27;;;;;;;;;;;;;;;13.79;86.83;97311.63;30001;983;1875;-70
2021/08/23 01:21:00;;;;;;;;;;;;;;;13.80;87.06;97307.78;30001;983;1866;-70
2021/08/23 01:21:31;;;;;;;;;;;;;;;13.79;87.67;97306.16;30001;983;1866;-72
2021/08/23 01:22:03;;;;;;;;;;;;;;;13.80;87.32;97307.78;30001;983;1879;-74
2021/08/23 01:22:37;;;;;;;;;;;;;;;13.81;86.91;97312.13;30001;983;1875;-71
2021/08/23 01:23:10;;;;;;;;;;;;;;;13.80;87.15;97313.22;30001;983;1880;-70
2021/08/23 01:23:43;;;;;;;;;;;;;;;13.81;86.88;97312.13;30001;983;1875;-70
2021/08/23 01:24:14;;;;;;;;;;;;;;;13.81;87.23;97308.59;30001;982;1880;-70
2021/08/23 01:24:49;;;;;;;;;;;;;;;13.78;87.32;97310.00;30001;982;1875;-71
2021/08/23 01:25:23;;;;;;;;;;;;;;;13.78;87.26;97312.72;30001;982;1867;-60
2021/08/23 01:25:54;;;;;;;;;;;;;;;13.76;87.39;97306.75;30001;982;1854;-71
2021/08/23 01:26:33;;;;;;;;;;;;;;;13.74;87.61;97309.78;30001;982;1880;-71
2021/08/23 01:27:06;;;;;;;;;;;;;;;13.77;87.39;97302.94;30001;982;1876;-69
2021/08/23 01:27:38;;;;;;;;;;;;;;;13.77;87.66;97302.13;30001;983;1879;-71
2021/08/23 01:28:18;;;;;;;;;;;;;;;13.78;87.54;97310.00;30001;983;1875;-71
2021/08/23 01:28:56;;;;;;;;;;;;;;;13.79;87.50;97308.09;30001;983;1866;-71
2021/08/23 01:29:28;;;;;;;;;;;;;;;13.81;87.73;97314.84;30001;983;1866;-70
2021/08/23 01:30:02;;;;;;;;;;;;;;;13.82;87.76;97311.00;30001;983;1880;-70
2021/08/23 01:30:45;;;;;;;;;;;;;;;13.86;87.52;97312.00;30001;983;1875;-70
2021/08/23 01:31:34;;;;;;;;;;;;;;;13.87;87.06;97316.34;30001;983;1880;-70
2021/08/23 01:32:15;;;;;;;;;;;;;;;13.87;87.36;97312.81;30001;982;1853;-71
2021/08/23 01:32:45;;;;;;;;;;;;;;;13.87;87.32;97312.81;30001;982;1871;-71
2021/08/23 01:33:16;;;;;;;;;;;;;;;13.85;87.18;97310.41;30001;982;1876;-71
2021/08/23 01:33:48;;;;;;;;;;;;;;;13.85;87.45;97309.59;30001;982;1880;-71
2021/08/23 01:34:20;;;;;;;;;;;;;;;13.83;87.38;97311.81;30001;982;1876;-71
2021/08/23 01:34:53;;;;;;;;;;;;;;;13.83;87.54;97312.63;30001;983;1879;-70
2021/08/23 01:35:24;;;;;;;;;;;;;;;13.85;87.18;97315.06;30001;983;1862;-70
2021/08/23 01:35:55;;;;;;;;;;;;;;;13.84;87.60;97311.53;30001;983;1871;-70
2021/08/23 01:36:26;;;;;;;;;;;;;;;13.85;87.55;97310.41;30001;983;1875;-69
2021/08/23 01:36:57;;;;;;;;;;;;;;;13.88;87.50;97312.50;30001;983;1879;-70
2021/08/23 01:37:29;;;;;;;;;;;;;;;13.88;87.06;97312.50;30001;983;1875;-71
2021/08/23 01:38:00;;;;;;;;;;;;;;;13.90;86.87;97309.47;30001;970;1886;-71
2021/08/23 01:38:31;;;;;;;;;;;;;;;13.90;86.94;97313.00;30001;983;1867;-71
2021/08/23 01:39:03;;;;;;;;;;;;;;;13.90;87.00;97313.00;30001;982;1880;-70
2021/08/23 01:39:35;;;;;;;;;;;;;;;13.93;87.30;97312.41;30001;982;1875;-72
2021/08/23 01:40:07;;;;;;;;;;;;;;;13.94;86.83;97311.28;30001;982;1867;-70
2021/08/23 01:40:38;;;;;;;;;;;;;;;13.94;86.83;97311.28;30001;982;1867;-71
2021/08/23 01:41:09;;;;;;;;;;;;;;;13.96;86.94;97309.06;30001;982;1880;-71
2021/08/23 01:41:40;;;;;;;;;;;;;;;13.96;87.13;97311.78;30001;982;1876;-69
2021/08/23 01:42:11;;;;;;;;;;;;;;;13.98;87.12;97308.75;30001;982;1880;-70
2021/08/23 01:42:43;;;;;;;;;;;;;;;13.97;86.87;97307.97;30001;983;1875;-71
2021/08/23 01:43:14;;;;;;;;;;;;;;;13.97;87.11;97302.50;30001;983;1879;-71
2021/08/23 01:43:45;;;;;;;;;;;;;;;13.98;86.96;97297.84;30001;983;1875;-71
2021/08/23 01:44:15;;;;;;;;;;;;;;;13.99;87.28;97315.84;30001;983;1879;-71
2021/08/23 01:44:46;;;;;;;;;;;;;;;14.00;87.12;97309.28;30002;983;1794;-71
2021/08/23 01:45:18;;;;;;;;;;;;;;;14.01;87.30;97311.69;30001;983;1866;-71
2021/08/23 01:45:49;;;;;;;;;;;;;;;13.99;87.07;97303.00;30001;983;1867;-71
2021/08/23 01:46:19;;;;;;;;;;;;;;;14.00;87.02;97307.34;30001;983;1880;-72
2021/08/23 01:46:50;;;;;;;;;;;;;;;14.00;87.25;97301.91;30001;982;1875;-60
2021/08/23 01:47:23;;;;;;;;;;;;;;;14.01;87.27;97308.16;30001;982;1880;-73
2021/08/23 01:47:54;;;;;;;;;;;;;;;14.00;87.62;97312.81;30001;982;1876;-72
2021/08/23 01:48:25;;;;;;;;;;;;;;;14.01;87.75;97308.97;30001;982;1880;-71
2021/08/23 01:48:57;;;;;;;;;;;;;;;14.01;87.62;97314.44;30001;982;1876;-71
2021/08/23 01:49:28;;;;;;;;;;;;;;;14.01;87.59;97311.69;30001;982;1867;-71
2021/08/23 01:50:00;;;;;;;;;;;;;;;14.01;87.45;97311.69;30001;983;1866;-71
2021/08/23 01:50:31;;;;;;;;;;;;;;;14.01;87.82;97313.62;30001;983;1879;-70
2021/08/23 01:51:02;;;;;;;;;;;;;;;14.01;87.70;97310.87;30001;983;1875;-70
2021/08/23 01:51:33;;;;;;;;;;;;;;;13.99;87.72;97316.66;30001;983;1879;-71
2021/08/23 01:52:05;;;;;;;;;;;;;;;13.99;87.37;97310.37;30001;983;1875;-73
2021/08/23 01:52:36;;;;;;;;;;;;;;;13.98;87.56;97315.03;30001;983;1880;-69
2021/08/23 01:53:07;;;;;;;;;;;;;;;13.99;87.57;97310.37;30001;983;1875;-71
2021/08/23 01:53:38;;;;;;;;;;;;;;;13.99;87.79;97313.09;30001;983;1880;-71
2021/08/23 01:54:09;;;;;;;;;;;;;;;13.99;87.65;97311.19;30001;982;1862;-73
2021/08/23 01:54:42;;;;;;;;;;;;;;;13.98;87.47;97315.03;30001;982;1871;-71
2021/08/23 01:55:13;;;;;;;;;;;;;;;13.98;87.33;97309.56;30001;982;1876;-71
2021/08/23 01:55:44;;;;;;;;;;;;;;;13.98;87.56;97315.03;30001;982;1880;-70
2021/08/23 01:56:15;;;;;;;;;;;;;;;13.98;87.41;97312.31;30001;982;1862;-72
2021/08/23 01:56:46;;;;;;;;;;;;;;;13.97;87.13;97318.87;30001;983;1870;-72
2021/08/23 01:57:17;;;;;;;;;;;;;;;13.97;87.13;97316.13;30001;983;1875;-71
2021/08/23 01:57:48;;;;;;;;;;;;;;;13.96;87.26;97311.78;30001;983;1879;-72
2021/08/23 01:58:19;;;;;;;;;;;;;;;13.97;87.01;97313.41;30001;983;1875;-59
2021/08/23 01:58:50;;;;;;;;;;;;;;;13.99;87.33;97315.84;30001;983;1879;-71
2021/08/23 01:59:22;;;;;;;;;;;;;;;13.96;87.35;97311.78;30001;983;1875;-71
2021/08/23 01:59:53;;;;;;;;;;;;;;;13.95;87.37;97321.09;30001;983;1879;-71
2021/08/23 02:00:23;;;;;;;;;;;;;;;13.94;87.63;97314.03;30001;983;1862;-72
2021/08/23 02:00:54;;;;;;;;;;;;;;;13.91;87.54;97314.62;30001;968;1886;-71
2021/08/23 02:01:25;;;;;;;;;;;;;;;13.89;87.54;97308.66;30001;983;1862;-71
2021/08/23 02:01:56;;;;;;;;;;;;;;;13.89;87.67;97311.37;30001;982;1858;-71
2021/08/23 02:02:27;;;;;;;;;;;;;;;13.90;87.39;97315.72;30001;982;1862;-70
2021/08/23 02:02:57;;;;;;;;;;;;;;;13.91;87.53;97303.72;30001;982;1871;-70
2021/08/23 02:03:28;;;;;;;;;;;;;;;13.90;87.18;97313.00;30001;982;1876;-71
2021/08/23 02:03:59;;;;;;;;;;;;;;;13.90;87.52;97310.28;30001;982;1880;-70
2021/08/23 02:04:30;;;;;;;;;;;;;;;13.90;87.87;97307.56;30001;983;1875;-70
2021/08/23 02:05:01;;;;;;;;;;;;;;;13.90;88.37;97313.00;30001;983;1879;-72
2021/08/23 02:05:31;;;;;;;;;;;;;;;13.90;87.93;97307.56;30001;983;1875;-71
2021/08/23 02:06:02;;;;;;;;;;;;;;;13.89;88.15;97311.37;30001;983;1785;-70
2021/08/23 02:06:33;;;;;;;;;;;;;;;13.90;88.04;97312.19;30001;983;1875;-70
2021/08/23 02:07:04;;;;;;;;;;;;;;;13.91;87.91;97311.91;30001;983;1866;-72
2021/08/23 02:07:35;;;;;;;;;;;;;;;13.91;87.66;97314.62;30001;983;1866;-71
2021/08/23 02:08:06;;;;;;;;;;;;;;;13.92;87.67;97310.78;30001;974;1888;-71
2021/08/23 02:08:37;;;;;;;;;;;;;;;13.92;87.23;97304.53;30001;983;1875;-71
2021/08/23 02:09:08;;;;;;;;;;;;;;;13.92;87.75;97309.97;30001;983;1879;-71
2021/08/23 02:09:39;;;;;;;;;;;;;;;13.92;87.71;97304.53;30001;982;1875;-71
2021/08/23 02:10:10;;;;;;;;;;;;;;;13.90;88.15;97304.81;30001;982;1880;-68
2021/08/23 02:10:41;;;;;;;;;;;;;;;13.90;88.23;97313.00;30001;982;1876;-69
2021/08/23 02:11:12;;;;;;;;;;;;;;;13.90;88.05;97310.28;30001;982;1880;-70
2021/08/23 02:11:43;;;;;;;;;;;;;;;13.90;88.07;97312.19;30001;983;1875;-70
2021/08/23 02:12:13;;;;;;;;;;;;;;;13.90;88.04;97310.28;30001;983;1866;-71
2021/08/23 02:12:44;;;;;;;;;;;;;;;13.90;88.15;97313.00;30001;983;1866;-70
2021/08/23 02:13:15;;;;;;;;;;;;;;;13.90;88.12;97306.75;30001;983;1879;-70
2021/08/23 02:13:46;;;;;;;;;;;;;;;13.90;87.83;97306.75;30001;969;1895;-71
2021/08/23 02:14:17;;;;;;;;;;;;;;;13.89;87.81;97308.66;30001;983;1879;-71
2021/08/23 02:14:47;;;;;;;;;;;;;;;13.89;87.67;97308.66;30001;983;1875;-71
2021/08/23 02:15:18;;;;;;;;;;;;;;;13.89;88.07;97305.13;30001;983;1880;-70
2021/08/23 02:15:49;;;;;;;;;;;;;;;13.89;88.04;97310.59;30001;983;1875;-71
2021/08/23 02:16:21;;;;;;;;;;;;;;;13.88;87.98;97309.78;30001;983;1880;-70
2021/08/23 02:16:54;;;;;;;;;;;;;;;13.89;87.99;97311.37;30001;982;1862;-72
2021/08/23 02:17:25;;;;;;;;;;;;;;;13.91;87.71;97309.16;30001;982;1858;-70
2021/08/23 02:17:56;;;;;;;;;;;;;;;13.93;87.60;97312.41;30001;982;1876;-71
2021/08/23 02:18:27;;;;;;;;;;;;;;;13.96;87.23;97311.00;30001;982;1880;-71
2021/08/23 02:18:58;;;;;;;;;;;;;;;13.97;86.62;97307.16;30001;982;1876;-71
2021/08/23 02:19:29;;;;;;;;;;;;;;;13.97;86.24;97302.50;30001;983;1879;-71
2021/08/23 02:20:00;;;;;;;;;;;;;;;13.97;86.22;97307.16;30001;983;1875;-70
2021/08/23 02:20:31;;;;;;;;;;;;;;;13.97;86.48;97299.78;30001;972;1899;-74
2021/08/23 02:21:02;;;;;;;;;;;;;;;13.99;86.23;97303.00;30001;983;1875;-71
2021/08/23 02:21:44;;;;;;;;;;;;;;;14.04;85.97;97302.91;30001;983;1879;-73
2021/08/23 02:22:15;;;;;;;;;;;;;;;14.05;86.01;97307.25;30001;983;1862;-74
2021/08/23 02:22:46;;;;;;;;;;;;;;;14.04;85.78;97305.63;30001;983;1772;-74
2021/08/23 02:23:17;;;;;;;;;;;;;;;14.04;86.59;97302.91;30001;983;1862;-72
2021/08/23 02:23:50;;;;;;;;;;;;;;;14.02;86.61;97305.13;30001;983;1871;-75
2021/08/23 02:24:21;;;;;;;;;;;;;;;14.01;86.39;97303.50;30001;982;1875;-74
2021/08/23 02:24:52;;;;;;;;;;;;;;;14.01;86.68;97308.97;30001;982;1880;-62
2021/08/23 02:25:22;;;;;;;;;;;;;;;13.99;86.28;97305.72;30001;982;1876;-75
2021/08/23 02:25:54;;;;;;;;;;;;;;;13.99;86.63;97305.72;30001;982;1880;-75
2021/08/23 02:26:25;;;;;;;;;;;;;;;13.98;86.79;97298.66;30001;982;1863;-74
2021/08/23 02:26:56;;;;;;;;;;;;;;;13.97;86.95;97307.97;30001;983;1857;-61
2021/08/23 02:27:27;;;;;;;;;;;;;;;13.96;86.61;97305.53;30001;983;1875;-75
2021/08/23 02:27:57;;;;;;;;;;;;;;;13.96;86.79;97300.88;30001;983;1821;-74
2021/08/23 02:28:28;;;;;;;;;;;;;;;13.96;86.83;97303.63;30001;983;1875;-74
2021/08/23 02:28:59;;;;;;;;;;;;;;;13.96;87.04;97295.44;30001;983;1879;-75
2021/08/23 02:29:30;;;;;;;;;;;;;;;13.96;87.51;97300.88;30001;983;1875;-74
2021/08/23 02:30:01;;;;;;;;;;;;;;;13.95;87.72;97303.91;30001;983;1879;-72
2021/08/23 02:30:32;;;;;;;;;;;;;;;13.96;87.55;97300.88;30001;983;1875;-74
2021/08/23 02:31:03;;;;;;;;;;;;;;;13.97;87.13;97297.03;30001;982;1867;-73
2021/08/23 02:31:34;;;;;;;;;;;;;;;13.97;87.41;97298.97;30001;982;1867;-71
2021/08/23 02:32:05;;;;;;;;;;;;;;;14.00;87.33;97306.53;30001;982;1880;-73
2021/08/23 02:32:36;;;;;;;;;;;;;;;14.02;86.66;97304.31;30001;982;1875;-74
2021/08/23 02:33:07;;;;;;;;;;;;;;;14.00;86.33;97307.34;30001;982;1880;-74
2021/08/23 02:33:38;;;;;;;;;;;;;;;14.02;86.35;97298.88;30001;982;1863;-74
2021/08/23 02:34:08;;;;;;;;;;;;;;;14.01;86.43;97298.06;30001;982;1871;-72
2021/08/23 02:34:39;;;;;;;;;;;;;;;14.01;86.57;97295.31;30001;983;1875;-75
2021/08/23 02:35:10;;;;;;;;;;;;;;;14.02;86.96;97298.88;30001;983;1879;-74
2021/08/23 02:35:41;;;;;;;;;;;;;;;14.01;87.22;97299.97;30001;983;1875;-74
2021/08/23 02:36:12;;;;;;;;;;;;;;;13.99;87.17;97300.28;30001;983;1879;-75
2021/08/23 02:36:43;;;;;;;;;;;;;;;13.98;87.19;97298.66;30001;983;1875;-72
2021/08/23 02:37:14;;;;;;;;;;;;;;;13.96;86.87;97303.63;30001;983;1866;-74
2021/08/23 02:37:45;;;;;;;;;;;;;;;13.96;86.96;97302.81;30001;983;1867;-75
2021/08/23 02:38:16;;;;;;;;;;;;;;;13.96;87.37;97300.06;30001;983;1880;-74
2021/08/23 02:38:49;;;;;;;;;;;;;;;13.96;87.00;97303.63;30001;982;1875;-74
2021/08/23 02:39:20;;;;;;;;;;;;;;;13.96;87.28;97306.34;30001;982;1880;-74
2021/08/23 02:39:50;;;;;;;;;;;;;;;13.96;87.16;97305.53;30001;982;1876;-75
2021/08/23 02:40:22;;;;;;;;;;;;;;;13.94;87.08;97300.38;30001;982;1880;-74
2021/08/23 02:40:53;;;;;;;;;;;;;;;13.92;87.14;97299.88;30001;982;1862;-74
2021/08/23 02:41:24;;;;;;;;;;;;;;;13.93;87.51;97306.12;30001;982;1871;-75
2021/08/23 02:41:54;;;;;;;;;;;;;;;13.91;87.57;97306.44;30001;983;1875;-74
2021/08/23 02:42:25;;;;;;;;;;;;;;;13.91;87.65;97302.91;30001;960;1902;-75
2021/08/23 02:42:56;;;;;;;;;;;;;;;13.92;87.74;97305.31;30001;983;1835;-72
2021/08/23 02:43:27;;;;;;;;;;;;;;;13.92;87.61;97309.97;30001;983;1879;-74
2021/08/23 02:43:58;;;;;;;;;;;;;;;13.91;87.70;97309.16;30001;983;1862;-74
2021/08/23 02:44:29;;;;;;;;;;;;;;;13.93;87.39;97306.94;30001;983;1858;-74
2021/08/23 02:44:59;;;;;;;;;;;;;;;13.92;87.48;97299.06;30001;983;1875;-73
2021/08/23 02:45:30;;;;;;;;;;;;;;;13.93;87.55;97296.03;30001;983;1880;-75
2021/08/23 02:46:01;;;;;;;;;;;;;;;13.93;87.10;97301.50;30001;983;1875;-62
2021/08/23 02:46:32;;;;;;;;;;;;;;;13.94;87.49;97308.56;30001;982;1880;-74
2021/08/23 02:47:03;;;;;;;;;;;;;;;13.94;87.56;97307.75;30001;982;1876;-74
2021/08/23 02:47:36;;;;;;;;;;;;;;;13.94;87.68;97299.56;30001;982;1880;-61
2021/08/23 02:48:07;;;;;;;;;;;;;;;13.94;87.73;97305.84;30001;982;1862;-74
2021/08/23 02:48:38;;;;;;;;;;;;;;;13.92;87.73;97302.59;30001;982;1871;-74
2021/08/23 02:49:08;;;;;;;;;;;;;;;13.91;87.50;97303.72;30001;982;1876;-72
2021/08/23 02:49:39;;;;;;;;;;;;;;;13.91;87.40;97302.91;30001;983;1879;-74
2021/08/23 02:50:10;;;;;;;;;;;;;;;13.89;87.22;97295.03;30001;983;1875;-73
2021/08/23 02:50:41;;;;;;;;;;;;;;;13.89;87.36;97297.75;30001;983;1879;-74
2021/08/23 02:51:12;;;;;;;;;;;;;;;13.90;87.64;97296.63;30001;983;1875;-73
2021/08/23 02:51:44;;;;;;;;;;;;;;;13.89;87.76;97299.66;30001;983;1879;-73